Time;durP1;ratioP1;P1;durP2;ratioP2;P2;SDS_P1;SDS_P2;PMS_P1;PMS_P2;Temp;Humidity;BMP_temperature;BMP_pressure;BME280_temperature;BME280_humidity;BME280_pressure;Samples;Min_cycle;Max_cycle;Signal;HPM_P1;HPM_P2
2023/12/04 13:17:53;;;;;;;1999.90;841.70;;;;;;;2.10;76.89;100769.80;664527;1294;566668;-79
2023/12/04 13:33:36;;;;;;;74.30;31.10;;;;;;;2.24;76.41;100757.23;676750;1274;139959;-81
2023/12/04 13:49:13;;;;;;;187.60;68.50;;;;;;;2.19;76.47;100758.52;679882;1266;141234;-80
2023/12/04 14:04:51;;;;;;;98.10;40.40;;;;;;;2.16;75.78;100757.11;680599;1266;138886;-80
2023/12/04 14:20:28;;;;;;;281.90;100.20;;;;;;;2.03;76.18;100768.05;680174;1268;138679;-82
2023/12/04 14:36:05;;;;;;;107.60;43.40;;;;;;;1.69;75.83;100779.15;676467;1263;139248;-80
2023/12/04 14:51:48;;;;;;;138.30;50.60;;;;;;;1.53;75.87;100790.89;678788;1279;139070;-81
2023/12/04 15:23:20;;;;;;;78.00;28.20;;;;;;;1.57;76.42;100796.08;679594;1266;141588;-81
2023/12/04 15:38:59;;;;;;;87.00;33.50;;;;;;;1.26;76.57;100790.96;673838;1266;138914;-81
2023/12/04 15:54:35;;;;;;;77.70;28.20;;;;;;;1.17;76.61;100790.45;677136;1267;139070;-81
2023/12/04 16:10:14;;;;;;;143.30;48.40;;;;;;;0.92;76.74;100798.70;676508;1266;139793;-81
2023/12/04 16:25:52;;;;;;;83.70;29.10;;;;;;;0.90;77.71;100798.77;676044;1269;141812;-81
2023/12/04 16:41:29;;;;;;;93.90;30.90;;;;;;;1.03;77.20;100811.34;676598;1266;139306;-80
2023/12/04 16:57:06;;;;;;;93.90;31.70;;;;;;;1.07;77.48;100814.84;675857;1269;139395;-80
2023/12/04 17:12:44;;;;;;;138.80;44.00;;;;;;;1.08;77.07;100811.34;673998;1263;139651;-80
2023/12/04 17:28:21;;;;;;;141.50;48.80;;;;;;;0.88;77.17;100807.64;680144;1267;139406;-81
2023/12/04 17:43:59;;;;;;;244.00;69.40;;;;;;;0.76;77.52;100801.56;677967;1268;140453;-81
2023/12/04 17:59:36;;;;;;;120.20;48.20;;;;;;;0.51;78.12;100804.58;680496;1276;140611;-80
2023/12/04 18:15:16;;;;;;;139.60;49.90;;;;;;;0.38;77.80;100804.35;676598;1264;139108;-81
2023/12/04 18:30:53;;;;;;;164.00;55.10;;;;;;;0.29;78.30;100814.83;678710;1274;140534;-81
2023/12/04 18:46:35;;;;;;;202.70;67.30;;;;;;;0.23;78.76;100822.63;674578;1267;139397;-81
2023/12/04 19:02:12;;;;;;;197.90;71.90;;;;;;;0.15;78.73;100817.77;678791;1264;139735;-80
2023/12/04 19:17:49;;;;;;;149.10;50.20;;;;;;;-0.11;79.77;100808.69;678240;1267;139449;-80
2023/12/04 19:33:46;;;;;;;271.50;76.50;;;;;;;-0.10;79.80;100796.10;681117;1264;139349;-81
2023/12/04 19:49:23;;;;;;;286.80;91.70;;;;;;;-0.19;81.25;100790.40;678130;1265;140452;-81
2023/12/04 20:05:00;;;;;;;232.60;78.20;;;;;;;-0.04;79.94;100788.00;676771;1266;140034;-81
2023/12/04 20:20:37;;;;;;;283.60;89.10;;;;;;;-0.31;79.06;100783.79;677806;1267;140595;-81
2023/12/04 20:36:20;;;;;;;203.30;65.20;;;;;;;-0.84;78.49;100771.81;672548;1267;139743;-80
2023/12/04 20:51:57;;;;;;;240.50;65.70;;;;;;;-1.49;77.56;100763.36;678693;1265;139777;-81
2023/12/04 21:07:35;;;;;;;362.40;96.00;;;;;;;-1.79;76.97;100769.04;674418;1267;139927;-80
2023/12/04 21:23:11;;;;;;;273.90;73.80;;;;;;;-1.90;77.15;100772.11;675688;1263;140641;-80
2023/12/04 21:38:48;;;;;;;265.50;80.70;;;;;;;-1.99;77.75;100766.88;678103;1262;140402;-81
2023/12/04 21:54:25;;;;;;;207.20;62.40;;;;;;;-2.05;77.50;100759.65;677141;1276;140639;-80
2023/12/04 22:10:02;;;;;;;251.90;69.10;;;;;;;-2.00;77.55;100752.32;676595;1266;140516;-80
2023/12/04 22:25:41;;;;;;;165.70;47.50;;;;;;;-1.91;77.60;100746.25;678361;1266;139512;-80
2023/12/04 22:41:18;;;;;;;311.90;87.90;;;;;;;-1.94;77.15;100739.11;679829;1263;139710;-79
2023/12/04 22:56:55;;;;;;;315.40;90.50;;;;;;;-2.09;77.26;100747.60;677352;1262;139771;-79
2023/12/04 23:12:32;;;;;;;251.40;68.70;;;;;;;-2.27;77.11;100743.81;675400;1262;140487;-79
2023/12/04 23:28:09;;;;;;;182.40;50.40;;;;;;;-2.10;77.93;100733.41;676895;1261;140440;-80
2023/12/04 23:43:46;;;;;;;127.30;37.80;;;;;;;-2.00;77.92;100717.87;677643;1264;140725;-80
2023/12/04 23:59:23;;;;;;;128.40;36.60;;;;;;;-1.94;77.50;100710.33;677729;1263;140157;-80
